RYR57MU EKCH-EGSS
Flight info
| Callsign | RYR57MU |
|---|---|
| Flight time | 1h 22m |
| Altitude | 35999 |
| Route | LANGO DCT KESUR DCT LONAM DCT BINBO DCT AKOKO N866 KUBAX Z150 MEGEL |
| Aircraft | B738/M-SDE2E3FGIJ1RWYZ/SB1 |
Departure
| Time | 2026-04-21 21:47 |
|---|---|
| Airport | Copenhagen Kastrup Airport (EKCH) |
Arrival
| Time | 2026-04-21 23:10 |
|---|---|
| Airport | London Stansted Airport (EGSS) |
| Time | Latitude | Longitude | Altitude | Speed | Heading |
|---|---|---|---|---|---|
| 2026-04-21 21:08 | 55.62526 | 12.65702 | 19 ft | 0 kts | 358° |
| 2026-04-21 21:34 | 55.62522 | 12.65702 | 19 ft | 2 kts | 358° |
| 2026-04-21 21:34 | 55.62507 | 12.65703 | 19 ft | 2 kts | 358° |
| 2026-04-21 21:35 | 55.62492 | 12.65704 | 19 ft | 2 kts | 358° |
| 2026-04-21 21:35 | 55.62477 | 12.65705 | 19 ft | 2 kts | 358° |
| 2026-04-21 21:35 | 55.62461 | 12.65706 | 18 ft | 2 kts | 16° |
| 2026-04-21 21:35 | 55.62449 | 12.65692 | 19 ft | 2 kts | 50° |
| 2026-04-21 21:36 | 55.62442 | 12.65669 | 19 ft | 1 kts | 83° |
| 2026-04-21 21:36 | 55.62442 | 12.65658 | 19 ft | 0 kts | 92° |
| 2026-04-21 21:39 | 55.62442 | 12.65665 | 19 ft | 2 kts | 92° |
| 2026-04-21 21:39 | 55.62442 | 12.65747 | 18 ft | 10 kts | 89° |
| 2026-04-21 21:39 | 55.62443 | 12.65827 | 18 ft | 2 kts | 89° |
| 2026-04-21 21:39 | 55.62443 | 12.65849 | 18 ft | 3 kts | 89° |
| 2026-04-21 21:40 | 55.62444 | 12.65929 | 18 ft | 9 kts | 88° |
| 2026-04-21 21:40 | 55.62436 | 12.66017 | 18 ft | 6 kts | 153° |
| 2026-04-21 21:40 | 55.62370 | 12.66044 | 16 ft | 10 kts | 175° |
| 2026-04-21 21:40 | 55.62307 | 12.65959 | 16 ft | 13 kts | 250° |
| 2026-04-21 21:41 | 55.62300 | 12.65791 | 17 ft | 13 kts | 269° |
| 2026-04-21 21:41 | 55.62298 | 12.65629 | 18 ft | 13 kts | 269° |
| 2026-04-21 21:41 | 55.62296 | 12.65498 | 18 ft | 11 kts | 269° |
| 2026-04-21 21:41 | 55.62295 | 12.65350 | 18 ft | 13 kts | 269° |
| 2026-04-21 21:42 | 55.62288 | 12.65187 | 18 ft | 12 kts | 253° |
| 2026-04-21 21:42 | 55.62290 | 12.65031 | 18 ft | 13 kts | 304° |
| 2026-04-21 21:42 | 55.62328 | 12.64935 | 18 ft | 7 kts | 304° |
| 2026-04-21 21:42 | 55.62353 | 12.64840 | 16 ft | 10 kts | 269° |
| 2026-04-21 21:43 | 55.62329 | 12.64726 | 16 ft | 7 kts | 248° |
| 2026-04-21 21:43 | 55.62302 | 12.64617 | 16 ft | 10 kts | 246° |
| 2026-04-21 21:43 | 55.62268 | 12.64483 | 16 ft | 13 kts | 246° |
| 2026-04-21 21:43 | 55.62211 | 12.64358 | 16 ft | 14 kts | 207° |
| 2026-04-21 21:44 | 55.62118 | 12.64277 | 16 ft | 15 kts | 206° |
| 2026-04-21 21:44 | 55.62034 | 12.64208 | 18 ft | 10 kts | 204° |
| 2026-04-21 21:44 | 55.61983 | 12.64169 | 19 ft | 6 kts | 195° |
| 2026-04-21 21:44 | 55.61942 | 12.64139 | 19 ft | 7 kts | 205° |
| 2026-04-21 21:45 | 55.61883 | 12.64088 | 20 ft | 10 kts | 206° |
| 2026-04-21 21:45 | 55.61807 | 12.64077 | 21 ft | 10 kts | 177° |
| 2026-04-21 21:45 | 55.61741 | 12.64085 | 21 ft | 8 kts | 176° |
| 2026-04-21 21:45 | 55.61684 | 12.64090 | 21 ft | 8 kts | 177° |
| 2026-04-21 21:46 | 55.61611 | 12.64050 | 21 ft | 20 kts | 218° |
| 2026-04-21 21:46 | 55.61343 | 12.63637 | 20 ft | 81 kts | 221° |
| 2026-04-21 21:46 | 55.60774 | 12.62758 | 19 ft | 133 kts | 222° |
| 2026-04-21 21:46 | 55.59969 | 12.61511 | 40 ft | 171 kts | 223° |
| 2026-04-21 21:47 | 55.59058 | 12.60178 | 519 ft | 174 kts | 219° |
| 2026-04-21 21:47 | 55.58134 | 12.58794 | 1043 ft | 178 kts | 224° |
| 2026-04-21 21:47 | 55.57191 | 12.57280 | 1497 ft | 188 kts | 224° |
| 2026-04-21 21:47 | 55.56246 | 12.55599 | 1832 ft | 203 kts | 238° |
| 2026-04-21 21:48 | 55.55528 | 12.53309 | 2041 ft | 228 kts | 245° |
| 2026-04-21 21:48 | 55.54755 | 12.50800 | 2563 ft | 238 kts | 243° |
| 2026-04-21 21:48 | 55.53885 | 12.48195 | 2964 ft | 255 kts | 242° |
| 2026-04-21 21:48 | 55.52963 | 12.45523 | 3575 ft | 261 kts | 241° |
| 2026-04-21 21:49 | 55.51998 | 12.42728 | 4141 ft | 269 kts | 241° |
| 2026-04-21 21:49 | 55.51026 | 12.39938 | 4849 ft | 271 kts | 240° |
| 2026-04-21 21:49 | 55.50028 | 12.37068 | 5396 ft | 279 kts | 240° |
| 2026-04-21 21:49 | 55.49014 | 12.34158 | 6086 ft | 281 kts | 238° |
| 2026-04-21 21:50 | 55.47978 | 12.31243 | 6725 ft | 284 kts | 239° |
| 2026-04-21 21:50 | 55.46922 | 12.28311 | 7399 ft | 287 kts | 239° |
| 2026-04-21 21:50 | 55.45867 | 12.25323 | 8058 ft | 290 kts | 238° |
| 2026-04-21 21:50 | 55.44810 | 12.22334 | 8728 ft | 292 kts | 238° |
| 2026-04-21 21:51 | 55.43724 | 12.19268 | 9387 ft | 296 kts | 238° |
| 2026-04-21 21:51 | 55.42636 | 12.16191 | 10028 ft | 299 kts | 238° |
| 2026-04-21 21:51 | 55.41529 | 12.13075 | 10628 ft | 305 kts | 238° |
| 2026-04-21 21:51 | 55.40367 | 12.09805 | 10736 ft | 329 kts | 238° |
| 2026-04-21 21:52 | 55.39121 | 12.06307 | 11060 ft | 344 kts | 238° |
| 2026-04-21 21:52 | 55.37847 | 12.02729 | 11609 ft | 351 kts | 238° |
| 2026-04-21 21:52 | 55.36541 | 11.99069 | 12246 ft | 355 kts | 238° |
| 2026-04-21 21:52 | 55.35238 | 11.95421 | 12861 ft | 359 kts | 238° |
| 2026-04-21 21:53 | 55.33901 | 11.91690 | 13502 ft | 363 kts | 237° |
| 2026-04-21 21:53 | 55.32545 | 11.87907 | 14123 ft | 367 kts | 237° |
| 2026-04-21 21:53 | 55.31181 | 11.84110 | 14751 ft | 371 kts | 237° |
| 2026-04-21 21:53 | 55.29804 | 11.80282 | 15374 ft | 376 kts | 237° |
| 2026-04-21 21:54 | 55.28418 | 11.76436 | 15987 ft | 380 kts | 237° |
| 2026-04-21 21:54 | 55.26993 | 11.72487 | 16595 ft | 384 kts | 237° |
| 2026-04-21 21:54 | 55.25568 | 11.68546 | 17189 ft | 388 kts | 237° |
| 2026-04-21 21:54 | 55.24117 | 11.64566 | 17776 ft | 392 kts | 237° |
| 2026-04-21 21:55 | 55.22634 | 11.60548 | 18341 ft | 396 kts | 237° |
| 2026-04-21 21:55 | 55.21128 | 11.56479 | 18886 ft | 400 kts | 237° |
| 2026-04-21 21:55 | 55.19620 | 11.52408 | 19438 ft | 404 kts | 237° |
| 2026-04-21 21:55 | 55.18082 | 11.48257 | 19974 ft | 408 kts | 237° |
| 2026-04-21 21:56 | 55.16542 | 11.44112 | 20493 ft | 412 kts | 236° |
| 2026-04-21 21:56 | 55.14968 | 11.39879 | 21014 ft | 415 kts | 236° |
| 2026-04-21 21:56 | 55.13385 | 11.35631 | 21500 ft | 420 kts | 236° |
| 2026-04-21 21:56 | 55.11787 | 11.31339 | 21997 ft | 423 kts | 235° |
| 2026-04-21 21:57 | 55.10200 | 11.27086 | 22477 ft | 426 kts | 235° |
| 2026-04-21 21:57 | 55.08577 | 11.22747 | 22927 ft | 430 kts | 235° |
| 2026-04-21 21:57 | 55.06923 | 11.18333 | 23385 ft | 433 kts | 235° |
| 2026-04-21 21:57 | 55.05269 | 11.13926 | 23826 ft | 437 kts | 235° |
| 2026-04-21 21:58 | 55.03603 | 11.09500 | 24260 ft | 440 kts | 235° |
| 2026-04-21 21:58 | 55.01931 | 11.05068 | 24671 ft | 444 kts | 235° |
| 2026-04-21 21:58 | 55.00220 | 11.00538 | 25105 ft | 446 kts | 235° |
| 2026-04-21 21:58 | 54.98525 | 10.96061 | 25528 ft | 449 kts | 235° |
| 2026-04-21 21:59 | 54.96847 | 10.91499 | 25900 ft | 453 kts | 239° |
| 2026-04-21 21:59 | 54.95361 | 10.86629 | 26324 ft | 456 kts | 245° |
| 2026-04-21 21:59 | 54.94252 | 10.81498 | 26685 ft | 459 kts | 256° |
| 2026-04-21 21:59 | 54.93554 | 10.76098 | 27105 ft | 460 kts | 260° |
| 2026-04-21 22:00 | 54.92961 | 10.70587 | 27445 ft | 463 kts | 261° |
| 2026-04-21 22:00 | 54.92388 | 10.65121 | 27791 ft | 466 kts | 261° |
| 2026-04-21 22:00 | 54.91805 | 10.59601 | 28150 ft | 469 kts | 261° |
| 2026-04-21 22:00 | 54.91206 | 10.53963 | 28505 ft | 471 kts | 261° |
| 2026-04-21 22:01 | 54.90614 | 10.48420 | 28822 ft | 475 kts | 261° |
| 2026-04-21 22:01 | 54.90007 | 10.42780 | 29165 ft | 477 kts | 261° |
| 2026-04-21 22:01 | 54.89390 | 10.37067 | 29489 ft | 479 kts | 261° |
| 2026-04-21 22:01 | 54.88771 | 10.31362 | 29768 ft | 483 kts | 260° |
| 2026-04-21 22:02 | 54.88152 | 10.25661 | 30084 ft | 485 kts | 260° |
| 2026-04-21 22:02 | 54.87528 | 10.19945 | 30415 ft | 486 kts | 260° |
| 2026-04-21 22:02 | 54.86893 | 10.14176 | 30741 ft | 487 kts | 260° |
| 2026-04-21 22:02 | 54.86253 | 10.08377 | 31133 ft | 487 kts | 260° |
| 2026-04-21 22:03 | 54.85619 | 10.02673 | 31555 ft | 485 kts | 260° |
| 2026-04-21 22:03 | 54.84978 | 9.96926 | 32019 ft | 483 kts | 260° |
| 2026-04-21 22:03 | 54.84346 | 9.91247 | 32473 ft | 480 kts | 259° |
| 2026-04-21 22:03 | 54.83677 | 9.85620 | 32881 ft | 478 kts | 258° |
| 2026-04-21 22:04 | 54.82900 | 9.80026 | 33307 ft | 476 kts | 257° |
| 2026-04-21 22:04 | 54.82101 | 9.74491 | 33697 ft | 474 kts | 257° |
| 2026-04-21 22:04 | 54.81304 | 9.68974 | 34076 ft | 473 kts | 257° |
| 2026-04-21 22:04 | 54.80515 | 9.63501 | 34447 ft | 471 kts | 257° |
| 2026-04-21 22:05 | 54.79719 | 9.57988 | 34822 ft | 469 kts | 257° |
| 2026-04-21 22:05 | 54.78930 | 9.52523 | 35179 ft | 467 kts | 257° |
| 2026-04-21 22:05 | 54.78147 | 9.47109 | 35533 ft | 465 kts | 257° |
| 2026-04-21 22:05 | 54.77358 | 9.41656 | 35891 ft | 463 kts | 257° |
| 2026-04-21 22:06 | 54.76574 | 9.36267 | 36219 ft | 462 kts | 257° |
| 2026-04-21 22:06 | 54.75801 | 9.30948 | 36412 ft | 463 kts | 256° |
| 2026-04-21 22:06 | 54.75018 | 9.25567 | 36394 ft | 463 kts | 256° |
| 2026-04-21 22:07 | 54.73445 | 9.14819 | 36399 ft | 456 kts | 256° |
| 2026-04-21 22:07 | 54.71885 | 9.04230 | 36399 ft | 457 kts | 256° |
| 2026-04-21 22:08 | 54.70308 | 8.93605 | 36396 ft | 459 kts | 256° |
| 2026-04-21 22:08 | 54.68721 | 8.82979 | 36393 ft | 459 kts | 256° |
| 2026-04-21 22:09 | 54.67113 | 8.72298 | 36391 ft | 458 kts | 256° |
| 2026-04-21 22:09 | 54.65509 | 8.61710 | 36387 ft | 457 kts | 256° |
| 2026-04-21 22:10 | 54.63891 | 8.51098 | 36385 ft | 457 kts | 256° |
| 2026-04-21 22:10 | 54.62273 | 8.40565 | 36382 ft | 458 kts | 256° |
| 2026-04-21 22:11 | 54.60638 | 8.29975 | 36379 ft | 458 kts | 255° |
| 2026-04-21 22:11 | 54.58992 | 8.19364 | 36377 ft | 458 kts | 255° |
| 2026-04-21 22:12 | 54.57340 | 8.08797 | 36374 ft | 458 kts | 255° |
| 2026-04-21 22:12 | 54.55687 | 7.98290 | 36372 ft | 458 kts | 255° |
| 2026-04-21 22:13 | 54.54014 | 7.87725 | 36371 ft | 457 kts | 255° |
| 2026-04-21 22:13 | 54.52334 | 7.77195 | 36371 ft | 456 kts | 255° |
| 2026-04-21 22:14 | 54.50655 | 7.66743 | 36371 ft | 457 kts | 255° |
| 2026-04-21 22:14 | 54.48951 | 7.56190 | 36371 ft | 456 kts | 255° |
| 2026-04-21 22:15 | 54.47251 | 7.45730 | 36371 ft | 455 kts | 255° |
| 2026-04-21 22:15 | 54.45540 | 7.35259 | 36371 ft | 456 kts | 255° |
| 2026-04-21 22:16 | 54.43832 | 7.24859 | 36371 ft | 456 kts | 254° |
| 2026-04-21 22:16 | 54.42102 | 7.14385 | 36374 ft | 456 kts | 254° |
| 2026-04-21 22:17 | 54.40366 | 7.03958 | 36386 ft | 455 kts | 254° |
| 2026-04-21 22:17 | 54.38629 | 6.93584 | 36397 ft | 454 kts | 253° |
| 2026-04-21 22:18 | 54.36880 | 6.83201 | 36398 ft | 455 kts | 253° |
| 2026-04-21 22:18 | 54.35110 | 6.72756 | 36398 ft | 455 kts | 253° |
| 2026-04-21 22:19 | 54.33345 | 6.62407 | 36398 ft | 455 kts | 253° |
| 2026-04-21 22:19 | 54.31562 | 6.52007 | 36398 ft | 454 kts | 253° |
| 2026-04-21 22:20 | 54.29776 | 6.41661 | 36398 ft | 455 kts | 253° |
| 2026-04-21 22:20 | 54.27978 | 6.31298 | 36398 ft | 456 kts | 252° |
| 2026-04-21 22:21 | 54.26173 | 6.20943 | 36398 ft | 456 kts | 252° |
| 2026-04-21 22:21 | 54.24357 | 6.10588 | 36398 ft | 455 kts | 252° |
| 2026-04-21 22:22 | 54.22535 | 6.00266 | 36398 ft | 455 kts | 252° |
| 2026-04-21 22:22 | 54.20698 | 5.89928 | 36407 ft | 455 kts | 252° |
| 2026-04-21 22:23 | 54.18858 | 5.79627 | 36418 ft | 455 kts | 252° |
| 2026-04-21 22:23 | 54.17012 | 5.69342 | 36425 ft | 454 kts | 252° |
| 2026-04-21 22:24 | 54.15163 | 5.59108 | 36425 ft | 454 kts | 252° |
| 2026-04-21 22:24 | 54.13288 | 5.48787 | 36425 ft | 455 kts | 252° |
| 2026-04-21 22:25 | 54.11420 | 5.38563 | 36425 ft | 453 kts | 252° |
| 2026-04-21 22:25 | 54.09547 | 5.28358 | 36425 ft | 453 kts | 252° |
| 2026-04-21 22:26 | 54.07659 | 5.18124 | 36425 ft | 452 kts | 252° |
| 2026-04-21 22:26 | 54.05779 | 5.07992 | 36422 ft | 451 kts | 252° |
| 2026-04-21 22:27 | 54.03881 | 4.97827 | 36420 ft | 451 kts | 252° |
| 2026-04-21 22:27 | 54.01982 | 4.87712 | 36421 ft | 451 kts | 252° |
| 2026-04-21 22:28 | 54.00063 | 4.77548 | 36425 ft | 450 kts | 252° |
| 2026-04-21 22:28 | 53.98146 | 4.67494 | 36425 ft | 448 kts | 252° |
| 2026-04-21 22:29 | 53.96234 | 4.57448 | 36426 ft | 448 kts | 252° |
| 2026-04-21 22:29 | 53.94318 | 4.47435 | 36426 ft | 449 kts | 252° |
| 2026-04-21 22:30 | 53.92374 | 4.37344 | 36425 ft | 449 kts | 252° |
| 2026-04-21 22:30 | 53.90445 | 4.27374 | 36425 ft | 449 kts | 251° |
| 2026-04-21 22:31 | 53.88490 | 4.17330 | 36425 ft | 449 kts | 251° |
| 2026-04-21 22:31 | 53.86530 | 4.07313 | 36425 ft | 449 kts | 251° |
| 2026-04-21 22:32 | 53.84349 | 3.97487 | 36413 ft | 449 kts | 242° |
| 2026-04-21 22:32 | 53.82667 | 3.93050 | 36409 ft | 448 kts | 230° |
| 2026-04-21 22:32 | 53.80473 | 3.89317 | 36414 ft | 446 kts | 220° |
| 2026-04-21 22:33 | 53.75702 | 3.82682 | 36397 ft | 447 kts | 218° |
| 2026-04-21 22:33 | 53.70909 | 3.76112 | 36398 ft | 447 kts | 218° |
| 2026-04-21 22:34 | 53.66085 | 3.69494 | 36398 ft | 447 kts | 219° |
| 2026-04-21 22:34 | 53.61264 | 3.62889 | 36398 ft | 447 kts | 219° |
| 2026-04-21 22:35 | 53.56461 | 3.56318 | 36398 ft | 446 kts | 219° |
| 2026-04-21 22:35 | 53.51683 | 3.49799 | 36398 ft | 445 kts | 219° |
| 2026-04-21 22:36 | 53.44463 | 3.39981 | 36398 ft | 446 kts | 219° |
| 2026-04-21 22:36 | 53.39476 | 3.33904 | 36396 ft | 446 kts | 210° |
| 2026-04-21 22:37 | 53.34047 | 3.29024 | 36398 ft | 446 kts | 207° |
| 2026-04-21 22:37 | 53.28533 | 3.24285 | 36398 ft | 446 kts | 207° |
| 2026-04-21 22:38 | 53.23028 | 3.19587 | 36397 ft | 446 kts | 207° |
| 2026-04-21 22:38 | 53.17537 | 3.14927 | 36398 ft | 447 kts | 207° |
| 2026-04-21 22:39 | 53.12022 | 3.10264 | 36398 ft | 446 kts | 207° |
| 2026-04-21 22:39 | 53.06484 | 3.05602 | 36398 ft | 446 kts | 207° |
| 2026-04-21 22:40 | 53.00991 | 3.00990 | 36398 ft | 447 kts | 207° |
| 2026-04-21 22:40 | 52.95519 | 2.96079 | 36398 ft | 446 kts | 213° |
| 2026-04-21 22:41 | 52.90674 | 2.89859 | 35797 ft | 440 kts | 223° |
| 2026-04-21 22:41 | 52.88438 | 2.86534 | 35344 ft | 435 kts | 224° |
| 2026-04-21 22:41 | 52.86202 | 2.83182 | 34845 ft | 432 kts | 224° |
| 2026-04-21 22:42 | 52.83995 | 2.79873 | 34358 ft | 429 kts | 224° |
| 2026-04-21 22:42 | 52.81813 | 2.76604 | 33875 ft | 425 kts | 224° |
| 2026-04-21 22:42 | 52.79675 | 2.73401 | 33425 ft | 421 kts | 224° |
| 2026-04-21 22:42 | 52.77523 | 2.70180 | 32931 ft | 419 kts | 224° |
| 2026-04-21 22:43 | 52.75379 | 2.66974 | 32462 ft | 415 kts | 224° |
| 2026-04-21 22:43 | 52.73268 | 2.63825 | 31992 ft | 412 kts | 224° |
| 2026-04-21 22:43 | 52.71143 | 2.60657 | 31536 ft | 409 kts | 224° |
| 2026-04-21 22:43 | 52.69045 | 2.57536 | 31061 ft | 406 kts | 224° |
| 2026-04-21 22:44 | 52.66965 | 2.54443 | 30615 ft | 402 kts | 224° |
| 2026-04-21 22:44 | 52.64908 | 2.51390 | 30147 ft | 400 kts | 224° |
| 2026-04-21 22:44 | 52.62851 | 2.48343 | 29677 ft | 397 kts | 224° |
| 2026-04-21 22:44 | 52.60835 | 2.45359 | 29221 ft | 395 kts | 224° |
| 2026-04-21 22:45 | 52.58813 | 2.42368 | 28779 ft | 391 kts | 224° |
| 2026-04-21 22:45 | 52.56835 | 2.39448 | 28325 ft | 389 kts | 224° |
| 2026-04-21 22:45 | 52.54850 | 2.36518 | 27868 ft | 387 kts | 224° |
| 2026-04-21 22:45 | 52.52860 | 2.33584 | 27410 ft | 385 kts | 223° |
| 2026-04-21 22:46 | 52.50869 | 2.30652 | 26959 ft | 382 kts | 223° |
| 2026-04-21 22:46 | 52.48893 | 2.27748 | 26503 ft | 380 kts | 223° |
| 2026-04-21 22:46 | 52.46957 | 2.24905 | 26059 ft | 378 kts | 223° |
| 2026-04-21 22:46 | 52.44995 | 2.22028 | 25610 ft | 376 kts | 222° |
| 2026-04-21 22:47 | 52.43055 | 2.19186 | 25171 ft | 374 kts | 222° |
| 2026-04-21 22:47 | 52.41141 | 2.16386 | 24738 ft | 371 kts | 222° |
| 2026-04-21 22:47 | 52.39213 | 2.13569 | 24291 ft | 370 kts | 221° |
| 2026-04-21 22:47 | 52.37331 | 2.10790 | 23867 ft | 367 kts | 224° |
| 2026-04-21 22:48 | 52.35603 | 2.07772 | 23443 ft | 365 kts | 231° |
| 2026-04-21 22:48 | 52.34202 | 2.04329 | 23014 ft | 362 kts | 243° |
| 2026-04-21 22:48 | 52.33145 | 2.00633 | 22625 ft | 359 kts | 247° |
| 2026-04-21 22:48 | 52.32161 | 1.96884 | 22192 ft | 357 kts | 248° |
| 2026-04-21 22:49 | 52.31203 | 1.93213 | 21783 ft | 355 kts | 248° |
| 2026-04-21 22:49 | 52.30235 | 1.89522 | 21379 ft | 353 kts | 248° |
| 2026-04-21 22:49 | 52.29260 | 1.85818 | 20966 ft | 351 kts | 247° |
| 2026-04-21 22:49 | 52.28301 | 1.82186 | 20539 ft | 349 kts | 247° |
| 2026-04-21 22:50 | 52.27342 | 1.78568 | 20141 ft | 347 kts | 247° |
| 2026-04-21 22:50 | 52.26386 | 1.74987 | 19744 ft | 345 kts | 247° |
| 2026-04-21 22:50 | 52.25429 | 1.71425 | 19328 ft | 344 kts | 246° |
| 2026-04-21 22:50 | 52.24472 | 1.67882 | 18940 ft | 342 kts | 246° |
| 2026-04-21 22:51 | 52.23517 | 1.64357 | 18568 ft | 339 kts | 246° |
| 2026-04-21 22:51 | 52.22564 | 1.60841 | 18156 ft | 338 kts | 246° |
| 2026-04-21 22:51 | 52.21611 | 1.57324 | 17773 ft | 336 kts | 246° |
| 2026-04-21 22:51 | 52.20679 | 1.53879 | 17390 ft | 334 kts | 246° |
| 2026-04-21 22:52 | 52.19744 | 1.50417 | 16988 ft | 333 kts | 246° |
| 2026-04-21 22:52 | 52.18809 | 1.46957 | 16612 ft | 331 kts | 246° |
| 2026-04-21 22:52 | 52.17892 | 1.43556 | 16216 ft | 330 kts | 246° |
| 2026-04-21 22:52 | 52.16975 | 1.40148 | 15847 ft | 328 kts | 246° |
| 2026-04-21 22:53 | 52.16067 | 1.36772 | 15461 ft | 327 kts | 246° |
| 2026-04-21 22:53 | 52.15160 | 1.33399 | 15103 ft | 325 kts | 245° |
| 2026-04-21 22:53 | 52.14255 | 1.30021 | 14731 ft | 323 kts | 245° |
| 2026-04-21 22:53 | 52.13361 | 1.26682 | 14339 ft | 322 kts | 245° |
| 2026-04-21 22:54 | 52.12473 | 1.23359 | 13973 ft | 320 kts | 245° |
| 2026-04-21 22:54 | 52.11675 | 1.19983 | 13575 ft | 320 kts | 252° |
| 2026-04-21 22:54 | 52.10937 | 1.16637 | 13215 ft | 317 kts | 243° |
| 2026-04-21 22:54 | 52.09938 | 1.13437 | 12848 ft | 315 kts | 240° |
| 2026-04-21 22:55 | 52.08930 | 1.10284 | 12486 ft | 313 kts | 241° |
| 2026-04-21 22:55 | 52.07954 | 1.07148 | 12326 ft | 307 kts | 242° |
| 2026-04-21 22:55 | 52.07005 | 1.04045 | 12360 ft | 311 kts | 242° |
| 2026-04-21 22:55 | 52.06050 | 1.00894 | 12337 ft | 313 kts | 242° |
| 2026-04-21 22:56 | 52.05087 | 0.97698 | 12344 ft | 312 kts | 242° |
| 2026-04-21 22:56 | 52.04135 | 0.94538 | 12343 ft | 312 kts | 242° |
| 2026-04-21 22:56 | 52.03184 | 0.91383 | 12344 ft | 312 kts | 242° |
| 2026-04-21 22:56 | 52.02239 | 0.88250 | 12337 ft | 310 kts | 242° |
| 2026-04-21 22:57 | 52.01302 | 0.85138 | 12165 ft | 302 kts | 242° |
| 2026-04-21 22:57 | 52.00376 | 0.82071 | 11765 ft | 303 kts | 242° |
| 2026-04-21 22:57 | 51.99450 | 0.79020 | 11385 ft | 303 kts | 242° |
| 2026-04-21 22:57 | 51.98517 | 0.75950 | 11000 ft | 303 kts | 243° |
| 2026-04-21 22:58 | 51.97590 | 0.72882 | 10617 ft | 303 kts | 243° |
| 2026-04-21 22:58 | 51.96667 | 0.69839 | 10300 ft | 300 kts | 243° |
| 2026-04-21 22:58 | 51.95762 | 0.66858 | 10124 ft | 293 kts | 242° |
| 2026-04-21 22:58 | 51.94861 | 0.63895 | 9687 ft | 296 kts | 242° |
| 2026-04-21 22:59 | 51.93955 | 0.60922 | 9318 ft | 296 kts | 242° |
| 2026-04-21 22:59 | 51.93005 | 0.57926 | 8949 ft | 295 kts | 235° |
| 2026-04-21 22:59 | 51.91721 | 0.55413 | 8610 ft | 291 kts | 223° |
| 2026-04-21 22:59 | 51.90304 | 0.53090 | 8271 ft | 290 kts | 222° |
| 2026-04-21 23:00 | 51.88879 | 0.50777 | 7929 ft | 289 kts | 222° |
| 2026-04-21 23:00 | 51.87470 | 0.48492 | 7596 ft | 288 kts | 222° |
| 2026-04-21 23:00 | 51.86064 | 0.46211 | 7263 ft | 286 kts | 222° |
| 2026-04-21 23:00 | 51.84659 | 0.43932 | 6941 ft | 284 kts | 222° |
| 2026-04-21 23:01 | 51.83284 | 0.41702 | 6642 ft | 282 kts | 222° |
| 2026-04-21 23:01 | 51.81889 | 0.39444 | 6336 ft | 280 kts | 222° |
| 2026-04-21 23:01 | 51.80529 | 0.37242 | 6036 ft | 278 kts | 222° |
| 2026-04-21 23:01 | 51.79162 | 0.35029 | 5734 ft | 276 kts | 223° |
| 2026-04-21 23:02 | 51.77810 | 0.32845 | 5433 ft | 275 kts | 222° |
| 2026-04-21 23:02 | 51.76461 | 0.30665 | 5130 ft | 273 kts | 221° |
| 2026-04-21 23:02 | 51.75126 | 0.28506 | 4831 ft | 271 kts | 221° |
| 2026-04-21 23:02 | 51.73808 | 0.26382 | 4534 ft | 270 kts | 222° |
| 2026-04-21 23:03 | 51.72493 | 0.24225 | 4222 ft | 268 kts | 228° |
| 2026-04-21 23:03 | 51.71592 | 0.21641 | 3927 ft | 260 kts | 248° |
| 2026-04-21 23:03 | 51.70986 | 0.18998 | 3741 ft | 251 kts | 250° |
| 2026-04-21 23:03 | 51.70417 | 0.16364 | 3489 ft | 242 kts | 256° |
| 2026-04-21 23:04 | 51.70423 | 0.13773 | 3247 ft | 227 kts | 293° |
| 2026-04-21 23:04 | 51.71023 | 0.11558 | 3167 ft | 210 kts | 302° |
| 2026-04-21 23:04 | 51.71776 | 0.09657 | 2964 ft | 193 kts | 325° |
| 2026-04-21 23:04 | 51.72802 | 0.08348 | 2824 ft | 180 kts | 332° |
| 2026-04-21 23:05 | 51.73804 | 0.07215 | 2669 ft | 174 kts | 339° |
| 2026-04-21 23:05 | 51.74900 | 0.06549 | 2521 ft | 167 kts | 351° |
| 2026-04-21 23:05 | 51.76006 | 0.06255 | 2491 ft | 159 kts | 6° |
| 2026-04-21 23:05 | 51.77067 | 0.06586 | 2487 ft | 154 kts | 35° |
| 2026-04-21 23:06 | 51.77901 | 0.07642 | 2510 ft | 150 kts | 45° |
| 2026-04-21 23:06 | 51.78661 | 0.08773 | 2481 ft | 150 kts | 45° |
| 2026-04-21 23:06 | 51.79430 | 0.09919 | 2497 ft | 151 kts | 45° |
| 2026-04-21 23:06 | 51.80216 | 0.11092 | 2350 ft | 153 kts | 45° |
| 2026-04-21 23:07 | 51.80971 | 0.12218 | 2206 ft | 146 kts | 45° |
| 2026-04-21 23:07 | 51.81694 | 0.13297 | 1965 ft | 135 kts | 45° |
| 2026-04-21 23:07 | 51.82377 | 0.14317 | 1808 ft | 135 kts | 45° |
| 2026-04-21 23:07 | 51.83081 | 0.15369 | 1620 ft | 146 kts | 43° |
| 2026-04-21 23:08 | 51.83842 | 0.16512 | 1470 ft | 146 kts | 43° |
| 2026-04-21 23:08 | 51.84582 | 0.17635 | 1158 ft | 144 kts | 41° |
| 2026-04-21 23:08 | 51.85315 | 0.18726 | 974 ft | 143 kts | 42° |
| 2026-04-21 23:08 | 51.86042 | 0.19809 | 818 ft | 144 kts | 42° |
| 2026-04-21 23:09 | 51.86772 | 0.20901 | 636 ft | 142 kts | 43° |
| 2026-04-21 23:09 | 51.87492 | 0.21986 | 459 ft | 142 kts | 43° |
| 2026-04-21 23:09 | 51.88200 | 0.23053 | 358 ft | 126 kts | 40° |
| 2026-04-21 23:09 | 51.88665 | 0.23744 | 357 ft | 55 kts | 42° |
| 2026-04-21 23:10 | 51.88818 | 0.24015 | 357 ft | 24 kts | 61° |
| 2026-04-21 23:10 | 51.88868 | 0.24241 | 357 ft | 18 kts | 73° |
| 2026-04-21 23:10 | 51.88902 | 0.24416 | 357 ft | 8 kts | 71° |
| 2026-04-21 23:10 | 51.88898 | 0.24488 | 357 ft | 5 kts | 126° |
| 2026-04-21 23:11 | 51.88876 | 0.24532 | 357 ft | 5 kts | 134° |
| 2026-04-21 23:11 | 51.88839 | 0.24592 | 357 ft | 9 kts | 134° |
| 2026-04-21 23:11 | 51.88797 | 0.24682 | 357 ft | 10 kts | 103° |
| 2026-04-21 23:11 | 51.88839 | 0.24791 | 357 ft | 13 kts | 44° |
| 2026-04-21 23:12 | 51.88916 | 0.24904 | 358 ft | 16 kts | 42° |
| 2026-04-21 23:12 | 51.89004 | 0.25037 | 358 ft | 18 kts | 43° |
| 2026-04-21 23:12 | 51.89101 | 0.25184 | 358 ft | 20 kts | 43° |
| 2026-04-21 23:12 | 51.89163 | 0.25290 | 358 ft | 9 kts | 68° |
| 2026-04-21 23:13 | 51.89134 | 0.25370 | 358 ft | 11 kts | 134° |
| 2026-04-21 23:13 | 51.89079 | 0.25463 | 358 ft | 9 kts | 133° |
| 2026-04-21 23:13 | 51.89060 | 0.25513 | 358 ft | 5 kts | 83° |
| 2026-04-21 23:13 | 51.89085 | 0.25564 | 358 ft | 3 kts | 42° |
| 2026-04-21 23:14 | 51.89090 | 0.25571 | 358 ft | 0 kts | 42° |